Time;durP1;ratioP1;P1;durP2;ratioP2;P2;SDS_P1;SDS_P2;PMS_P1;PMS_P2;Temp;Humidity;BMP_temperature;BMP_pressure;BME280_temperature;BME280_humidity;BME280_pressure;Samples;Min_cycle;Max_cycle;Signal;HPM_P1;HPM_P2
2022/08/28 00:00:44;;;;;;;29.47;21.10;;;20.10;99.90;;;;;;7380162;19;20429;-47
2022/08/28 00:03:17;;;;;;;30.37;20.40;;;20.10;99.90;;;;;;7384053;19;20941;-47
2022/08/28 00:05:47;;;;;;;26.20;20.80;;;20.10;99.90;;;;;;7381250;19;20428;-47
2022/08/28 00:08:18;;;;;;;32.50;20.67;;;20.00;99.90;;;;;;7377243;19;20376;-47
2022/08/28 00:10:48;;;;;;;27.37;20.07;;;20.10;99.90;;;;;;7372415;19;20384;-47
2022/08/28 00:13:21;;;;;;;28.00;20.87;;;20.10;99.90;;;;;;7375778;19;20364;-47
2022/08/28 00:15:53;;;;;;;31.33;20.90;;;20.30;99.90;;;;;;7379741;19;20368;-47
2022/08/28 00:18:26;;;;;;;32.57;22.80;;;20.40;99.90;;;;;;7358538;19;20415;-47
2022/08/28 00:20:57;;;;;;;28.03;21.50;;;20.10;99.90;;;;;;7362244;19;20388;-47
2022/08/28 00:23:27;;;;;;;23.93;18.73;;;20.10;99.90;;;;;;7374519;19;20395;-47
2022/08/28 00:25:59;;;;;;;24.20;19.90;;;20.20;99.90;;;;;;7373131;19;20376;-48
2022/08/28 00:28:26;;;;;;;31.67;20.00;;;20.30;99.90;;;;;;7380227;19;20376;-47
2022/08/28 00:30:58;;;;;;;30.30;22.30;;;20.40;99.90;;;;;;7379337;19;20376;-48
2022/08/28 00:33:35;;;;;;;29.83;21.80;;;20.40;99.90;;;;;;7374824;19;20395;-48
2022/08/28 00:36:05;;;;;;;26.83;19.20;;;20.40;99.90;;;;;;7380937;19;21034;-48
2022/08/28 00:38:35;;;;;;;29.40;20.53;;;20.50;99.90;;;;;;7374517;19;20387;-48
2022/08/28 00:41:05;;;;;;;30.13;21.40;;;20.60;99.90;;;;;;7375498;19;20379;-48
2022/08/28 00:43:38;;;;;;;26.47;20.03;;;20.70;99.90;;;;;;7379965;19;20756;-48
2022/08/28 00:46:14;;;;;;;28.33;21.37;;;20.70;99.90;;;;;;7376923;19;20380;-48
2022/08/28 00:48:46;;;;;;;29.97;20.87;;;20.70;99.90;;;;;;7380648;19;20380;-48
2022/08/28 00:54:03;;;;;;;26.53;21.10;;;20.30;99.90;;;;;;7379815;19;20748;-48
2022/08/28 00:56:34;;;;;;;30.20;21.60;;;20.50;99.90;;;;;;7375584;19;20917;-48
2022/08/28 00:59:09;;;;;;;30.83;22.13;;;20.40;99.90;;;;;;7378529;19;20384;-48
2022/08/28 01:01:40;;;;;;;32.50;22.80;;;20.10;99.90;;;;;;7378236;19;20796;-47
2022/08/28 01:04:15;;;;;;;30.30;21.17;;;20.30;99.90;;;;;;7376186;19;21010;-47
2022/08/28 01:06:45;;;;;;;31.60;21.17;;;20.30;99.90;;;;;;7369358;19;20430;-47
2022/08/28 01:09:15;;;;;;;30.80;21.70;;;20.20;99.90;;;;;;7378038;19;20383;-47
2022/08/28 01:11:46;;;;;;;31.13;21.80;;;20.00;99.90;;;;;;7376556;19;20376;-47
2022/08/28 01:14:17;;;;;;;31.20;22.33;;;20.10;99.90;;;;;;7380573;19;20376;-47
2022/08/28 01:16:51;;;;;;;31.47;22.10;;;20.10;99.90;;;;;;7376775;19;20773;-47
2022/08/28 01:19:30;;;;;;;29.23;20.80;;;20.10;99.90;;;;;;7379471;19;20384;-47
2022/08/28 01:22:14;;;;;;;29.83;21.57;;;20.20;99.90;;;;;;7379049;19;20459;-47
2022/08/28 01:24:47;;;;;;;33.50;22.80;;;20.30;99.90;;;;;;7379819;19;20376;-47
2022/08/28 01:27:17;;;;;;;30.77;21.53;;;20.30;99.90;;;;;;7372110;19;20367;-48
2022/08/28 01:29:47;;;;;;;30.50;21.33;;;20.30;99.90;;;;;;7379916;19;20484;-47
2022/08/28 01:32:34;;;;;;;29.30;20.00;;;20.40;99.90;;;;;;7377397;19;20379;-47
2022/08/28 01:35:05;;;;;;;36.97;23.03;;;20.10;99.90;;;;;;7374353;19;20380;-47
2022/08/28 01:37:35;;;;;;;31.90;20.70;;;20.00;99.90;;;;;;7378224;19;20392;-48
2022/08/28 01:40:09;;;;;;;29.83;20.97;;;20.00;99.90;;;;;;7379633;19;20475;-47
2022/08/28 01:42:39;;;;;;;31.43;21.00;;;20.10;99.90;;;;;;7377025;19;20372;-47
2022/08/28 01:45:12;;;;;;;31.67;20.50;;;20.10;99.90;;;;;;7374793;19;20376;-47
2022/08/28 01:47:44;;;;;;;34.37;21.40;;;20.00;99.90;;;;;;7376908;19;20405;-47
2022/08/28 01:50:17;;;;;;;32.93;23.00;;;19.70;99.90;;;;;;7373289;19;20372;-47
2022/08/28 01:52:47;;;;;;;33.00;22.70;;;19.50;99.90;;;;;;7373149;19;20364;-47
2022/08/28 01:55:19;;;;;;;34.87;23.00;;;19.40;99.90;;;;;;7375970;19;20427;-47
2022/08/28 01:57:52;;;;;;;36.20;22.40;;;19.70;99.90;;;;;;7378984;19;20901;-47
2022/08/28 02:00:27;;;;;;;30.17;20.33;;;19.80;99.90;;;;;;7375131;19;20415;-47
2022/08/28 02:03:00;;;;;;;28.70;21.10;;;19.80;99.90;;;;;;7377188;19;20540;-47
2022/08/28 02:05:33;;;;;;;31.10;22.27;;;19.60;99.90;;;;;;7371178;19;20391;-48
2022/08/28 02:08:04;;;;;;;32.93;22.97;;;19.60;99.90;;;;;;7375455;19;20368;-47
2022/08/28 02:10:39;;;;;;;29.57;22.13;;;19.50;99.90;;;;;;7370195;19;20372;-47
2022/08/28 02:13:10;;;;;;;28.50;21.50;;;19.60;99.90;;;;;;7377014;19;20473;-47
2022/08/28 02:15:41;;;;;;;28.27;19.50;;;19.90;99.90;;;;;;7375226;19;20379;-47
2022/08/28 02:18:10;;;;;;;28.03;20.10;;;20.00;99.90;;;;;;7377735;19;20387;-47
2022/08/28 02:20:41;;;;;;;25.93;19.77;;;20.10;99.90;;;;;;7374311;19;20913;-47
2022/08/28 02:23:11;;;;;;;29.20;20.30;;;20.30;99.90;;;;;;7373304;19;20376;-47
2022/08/28 02:25:44;;;;;;;31.00;20.63;;;20.20;99.90;;;;;;7376290;19;20415;-47
2022/08/28 02:28:13;;;;;;;28.00;19.50;;;20.10;99.90;;;;;;7372875;19;20360;-48
2022/08/28 02:30:43;;;;;;;30.00;20.67;;;19.80;99.90;;;;;;7374187;19;20368;-48
2022/08/28 02:33:12;;;;;;;25.10;19.33;;;19.60;99.90;;;;;;7373192;19;20373;-48
2022/08/28 02:35:42;;;;;;;28.90;21.23;;;19.80;99.90;;;;;;7371192;19;20383;-48
2022/08/28 02:38:12;;;;;;;31.60;21.67;;;20.00;99.90;;;;;;7374278;19;20387;-47
2022/08/28 02:40:45;;;;;;;31.43;22.23;;;19.90;99.90;;;;;;7370991;19;20370;-47
2022/08/28 02:43:15;;;;;;;27.03;20.30;;;19.70;99.90;;;;;;7375712;19;20364;-48
2022/08/28 02:45:47;;;;;;;31.17;21.57;;;19.80;99.90;;;;;;7375361;19;20399;-48
2022/08/28 02:48:16;;;;;;;29.60;21.47;;;19.90;99.90;;;;;;7372839;19;20372;-48
2022/08/28 02:50:46;;;;;;;28.80;20.50;;;19.90;99.90;;;;;;7377522;19;20395;-48
2022/08/28 02:53:16;;;;;;;30.70;19.57;;;20.10;99.90;;;;;;7379196;19;20368;-48
2022/08/28 02:55:49;;;;;;;28.20;19.50;;;20.20;99.90;;;;;;7383770;19;20372;-48
2022/08/28 02:58:18;;;;;;;27.37;18.80;;;20.00;99.90;;;;;;7379621;19;20718;-48
2022/08/28 03:00:48;;;;;;;27.23;18.43;;;20.20;99.90;;;;;;7382232;19;20428;-48
2022/08/28 03:03:19;;;;;;;26.63;18.63;;;20.40;99.90;;;;;;7387311;19;20480;-48
2022/08/28 03:05:48;;;;;;;26.73;19.37;;;20.50;99.90;;;;;;7376902;19;20406;-48
2022/08/28 03:08:19;;;;;;;30.30;20.30;;;20.50;99.90;;;;;;7381367;19;20383;-48
2022/08/28 03:10:53;;;;;;;32.83;21.10;;;20.60;99.90;;;;;;7378890;19;20423;-48
2022/08/28 03:13:23;;;;;;;26.13;18.23;;;20.60;99.90;;;;;;7368691;19;20380;-48
2022/08/28 03:15:53;;;;;;;29.67;20.50;;;20.70;99.90;;;;;;7380450;19;20386;-48
2022/08/28 03:18:23;;;;;;;24.50;16.27;;;20.80;99.90;;;;;;7384758;19;20936;-48
2022/08/28 03:20:52;;;;;;;27.33;18.27;;;20.90;99.90;;;;;;7384482;19;20440;-48
2022/08/28 03:23:28;;;;;;;24.10;18.13;;;21.00;99.90;;;;;;7380005;19;20460;-48
2022/08/28 03:26:03;;;;;;;23.17;15.80;;;21.00;99.90;;;;;;7378549;19;21174;-48
2022/08/28 03:28:37;;;;;;;22.00;15.83;;;21.10;99.90;;;;;;7383211;19;20378;-48
2022/08/28 03:31:07;;;;;;;24.73;18.80;;;21.10;99.90;;;;;;7378794;19;20718;-48
2022/08/28 03:33:37;;;;;;;25.70;19.27;;;21.10;99.90;;;;;;7383521;19;20860;-47
2022/08/28 03:36:09;;;;;;;23.83;17.10;;;21.20;99.90;;;;;;7380670;19;20357;-47
2022/08/28 03:38:40;;;;;;;22.20;16.70;;;21.10;99.90;;;;;;7385815;19;20364;-47
2022/08/28 03:41:16;;;;;;;29.67;19.80;;;21.10;99.90;;;;;;7385250;19;20379;-47
2022/08/28 03:43:47;;;;;;;23.43;17.93;;;21.10;99.90;;;;;;7386601;19;20376;-47
2022/08/28 03:46:21;;;;;;;23.87;17.97;;;21.10;99.90;;;;;;7384541;19;20376;-47
2022/08/28 03:48:54;;;;;;;24.70;17.80;;;21.10;99.90;;;;;;7384117;19;20364;-47
2022/08/28 03:51:26;;;;;;;25.30;18.00;;;21.10;99.90;;;;;;7379729;19;20376;-47
2022/08/28 03:53:56;;;;;;;27.20;18.00;;;21.00;99.90;;;;;;7382851;19;20416;-47
2022/08/28 03:56:31;;;;;;;27.17;17.70;;;21.00;99.90;;;;;;7382214;19;20368;-47
2022/08/28 03:59:03;;;;;;;25.73;19.73;;;21.00;99.90;;;;;;7379412;19;20443;-47
2022/08/28 04:01:33;;;;;;;47.20;19.43;;;20.90;99.90;;;;;;7376652;19;20432;-47
2022/08/28 04:04:03;;;;;;;26.33;18.20;;;20.90;99.90;;;;;;7376615;19;20384;-47
2022/08/28 04:06:33;;;;;;;25.30;18.67;;;21.00;99.90;;;;;;7379624;19;20412;-47
2022/08/28 04:09:02;;;;;;;23.37;18.50;;;21.00;99.90;;;;;;7376284;19;20368;-47
2022/08/28 04:11:41;;;;;;;23.77;17.10;;;20.90;99.90;;;;;;7372713;19;20380;-47
2022/08/28 04:14:11;;;;;;;24.93;17.47;;;20.90;99.90;;;;;;7378374;19;20374;-47
2022/08/28 04:16:40;;;;;;;25.40;18.13;;;20.90;99.90;;;;;;7382142;19;20375;-47
2022/08/28 04:19:10;;;;;;;24.63;18.17;;;20.90;99.90;;;;;;7383327;19;20387;-47
2022/08/28 04:21:42;;;;;;;24.17;16.93;;;20.90;99.90;;;;;;7383146;19;20396;-47
2022/08/28 04:24:12;;;;;;;22.40;17.40;;;21.00;99.90;;;;;;7378899;19;20927;-47
2022/08/28 04:26:44;;;;;;;22.00;15.43;;;21.00;99.90;;;;;;7381478;19;20380;-47
2022/08/28 04:29:14;;;;;;;22.50;16.17;;;21.10;99.90;;;;;;7380151;19;20387;-47
2022/08/28 04:31:44;;;;;;;22.87;15.40;;;21.20;99.90;;;;;;7379934;19;20424;-47
2022/08/28 04:34:13;;;;;;;22.60;15.63;;;21.20;99.90;;;;;;7379926;19;20408;-48
2022/08/28 04:36:43;;;;;;;22.10;16.97;;;21.20;99.90;;;;;;7384170;19;20375;-47
2022/08/28 04:39:12;;;;;;;20.90;15.83;;;21.20;99.90;;;;;;7378882;19;20376;-47
2022/08/28 04:41:44;;;;;;;18.67;15.50;;;21.20;99.90;;;;;;7379344;19;20380;-47
2022/08/28 04:44:14;;;;;;;21.60;16.50;;;21.20;99.90;;;;;;7380935;19;20367;-47
2022/08/28 04:46:43;;;;;;;17.57;14.07;;;21.20;99.90;;;;;;7380051;19;20383;-47
2022/08/28 04:49:14;;;;;;;22.10;18.40;;;21.20;99.90;;;;;;7382955;19;20392;-47
2022/08/28 04:51:43;;;;;;;25.80;17.67;;;21.30;99.90;;;;;;7374593;19;20740;-47
2022/08/28 04:54:13;;;;;;;23.20;17.90;;;21.30;99.90;;;;;;7378223;19;20369;-47
2022/08/28 04:56:45;;;;;;;23.17;14.90;;;21.30;99.90;;;;;;7382166;19;20410;-47
2022/08/28 04:59:15;;;;;;;21.73;15.37;;;21.30;99.90;;;;;;7377361;19;20387;-47
2022/08/28 05:01:47;;;;;;;18.67;13.63;;;21.30;99.90;;;;;;7372723;19;21481;-48
2022/08/28 05:04:17;;;;;;;22.27;15.77;;;21.30;99.90;;;;;;7378808;19;20376;-48
2022/08/28 05:06:47;;;;;;;19.53;15.03;;;21.30;99.90;;;;;;7379294;19;20396;-48
2022/08/28 05:09:21;;;;;;;20.33;15.70;;;21.30;99.90;;;;;;7379330;19;20737;-49
2022/08/28 05:11:56;;;;;;;20.00;15.83;;;21.30;99.90;;;;;;7375664;19;20383;-48
2022/08/28 05:14:26;;;;;;;22.87;16.67;;;21.20;99.90;;;;;;7380921;19;20534;-48
2022/08/28 05:16:56;;;;;;;23.83;15.77;;;21.10;99.90;;;;;;7375720;19;20379;-48
2022/08/28 05:19:28;;;;;;;21.30;15.60;;;21.10;99.90;;;;;;7376043;19;20381;-48
2022/08/28 05:21:57;;;;;;;20.50;15.53;;;21.10;99.90;;;;;;7375531;19;20384;-48
2022/08/28 05:24:27;;;;;;;23.70;17.03;;;21.10;99.90;;;;;;7381815;19;20387;-48
2022/08/28 05:27:00;;;;;;;26.53;17.27;;;21.10;99.90;;;;;;7371978;19;20372;-48
2022/08/28 05:29:29;;;;;;;17.47;13.57;;;20.90;99.90;;;;;;7371190;19;21017;-48
2022/08/28 05:31:59;;;;;;;22.10;15.90;;;21.10;99.90;;;;;;7365863;19;20376;-48
2022/08/28 05:34:28;;;;;;;21.30;15.07;;;21.20;99.90;;;;;;7376868;19;20412;-47
2022/08/28 05:37:01;;;;;;;14.40;11.73;;;21.20;99.90;;;;;;7384372;19;20379;-47
2022/08/28 05:39:30;;;;;;;17.37;15.20;;;21.30;99.90;;;;;;7378598;19;20388;-47
2022/08/28 05:42:02;;;;;;;21.60;16.57;;;21.40;99.90;;;;;;7379657;19;20403;-47
2022/08/28 05:44:32;;;;;;;23.50;17.70;;;21.30;99.90;;;;;;7375860;19;21214;-47
2022/08/28 05:47:02;;;;;;;22.10;15.80;;;21.30;99.90;;;;;;7379675;19;20411;-47
2022/08/28 05:49:31;;;;;;;22.33;17.20;;;21.40;99.90;;;;;;7381759;19;20995;-47
2022/08/28 05:52:01;;;;;;;18.53;13.17;;;21.30;99.90;;;;;;7380526;19;20372;-47
2022/08/28 05:54:31;;;;;;;22.60;15.00;;;21.30;99.90;;;;;;7381480;19;20376;-47
2022/08/28 05:57:03;;;;;;;17.60;13.77;;;21.40;99.90;;;;;;7379962;19;20371;-47
2022/08/28 05:59:32;;;;;;;21.80;15.10;;;21.50;99.90;;;;;;7378922;19;20737;-47
2022/08/28 06:02:07;;;;;;;28.30;17.00;;;21.50;99.90;;;;;;7381327;19;20434;-47
2022/08/28 06:04:39;;;;;;;16.20;13.60;;;21.60;99.90;;;;;;7381372;19;20492;-48
2022/08/28 06:07:10;;;;;;;15.13;12.40;;;21.50;99.90;;;;;;7378908;19;20376;-47
2022/08/28 06:09:40;;;;;;;18.00;11.70;;;21.60;99.90;;;;;;7381589;19;20817;-47
2022/08/28 06:12:14;;;;;;;16.27;13.50;;;21.60;99.90;;;;;;7377655;19;20380;-47
2022/08/28 06:14:44;;;;;;;21.53;16.10;;;21.80;99.90;;;;;;7382284;19;20424;-47
2022/08/28 06:17:13;;;;;;;13.33;11.83;;;21.70;99.90;;;;;;7379843;19;21008;-48
2022/08/28 06:19:46;;;;;;;15.80;13.30;;;21.80;99.90;;;;;;7378240;19;20445;-47
2022/08/28 06:22:15;;;;;;;18.13;11.90;;;21.80;99.90;;;;;;7377041;19;20364;-49
2022/08/28 06:24:48;;;;;;;12.83;10.20;;;21.90;99.90;;;;;;7387019;19;20392;-47
2022/08/28 06:27:20;;;;;;;17.60;13.40;;;21.90;99.90;;;;;;7382100;19;20372;-47
2022/08/28 06:29:50;;;;;;;19.97;13.30;;;21.90;99.90;;;;;;7387614;19;20372;-47
2022/08/28 06:32:19;;;;;;;19.70;14.87;;;21.80;99.90;;;;;;7385941;19;20915;-47
2022/08/28 06:34:49;;;;;;;22.97;14.30;;;21.70;99.90;;;;;;7381179;19;20386;-47
2022/08/28 06:37:18;;;;;;;14.67;12.57;;;21.50;99.90;;;;;;7377718;19;20371;-47
2022/08/28 06:39:48;;;;;;;18.30;14.30;;;21.60;99.90;;;;;;7377484;19;20785;-48
2022/08/28 06:42:20;;;;;;;17.07;13.03;;;21.60;99.90;;;;;;7366526;19;20404;-47
2022/08/28 06:44:50;;;;;;;14.13;11.33;;;21.60;99.90;;;;;;7374854;19;20902;-47
2022/08/28 06:47:22;;;;;;;16.03;12.93;;;21.70;99.90;;;;;;7378205;19;20371;-48
2022/08/28 06:49:53;;;;;;;19.07;13.90;;;21.80;99.90;;;;;;7387122;19;20376;-47
2022/08/28 06:52:22;;;;;;;15.53;12.63;;;21.70;99.90;;;;;;7371482;19;20979;-47
2022/08/28 06:54:52;;;;;;;15.20;11.40;;;21.90;99.90;;;;;;7360988;19;20412;-47
2022/08/28 06:57:27;;;;;;;15.10;12.43;;;21.90;99.90;;;;;;7384621;19;20814;-47
2022/08/28 06:59:57;;;;;;;17.00;11.90;;;22.00;99.90;;;;;;7377908;19;20478;-47
2022/08/28 07:02:27;;;;;;;14.90;11.67;;;22.10;99.90;;;;;;7372950;19;20379;-47
2022/08/28 07:04:56;;;;;;;12.37;11.10;;;22.20;99.90;;;;;;7380262;19;20406;-47
2022/08/28 07:07:26;;;;;;;16.80;13.07;;;22.30;99.90;;;;;;7382413;19;20766;-47
2022/08/28 07:09:55;;;;;;;12.63;11.27;;;22.20;99.90;;;;;;7372245;19;20379;-47
2022/08/28 07:12:28;;;;;;;12.67;10.40;;;22.30;99.90;;;;;;7369157;19;20455;-48
2022/08/28 07:15:01;;;;;;;13.57;11.17;;;22.40;99.90;;;;;;7371383;19;20375;-47
2022/08/28 07:17:32;;;;;;;12.50;9.60;;;22.50;99.90;;;;;;7379923;19;20372;-48
2022/08/28 07:20:02;;;;;;;13.10;9.50;;;22.50;99.90;;;;;;7374539;19;20376;-48
2022/08/28 07:22:32;;;;;;;12.13;10.83;;;22.60;99.90;;;;;;7355973;19;20388;-48
2022/08/28 07:25:04;;;;;;;14.23;11.53;;;22.70;99.90;;;;;;7367408;19;20441;-47
2022/08/28 07:27:36;;;;;;;16.07;10.40;;;22.80;99.90;;;;;;7371955;19;20383;-48
2022/08/28 07:30:08;;;;;;;13.10;10.03;;;22.80;99.90;;;;;;7361508;19;20400;-47
2022/08/28 07:32:38;;;;;;;15.30;11.50;;;22.90;99.90;;;;;;7372437;19;20912;-47
2022/08/28 07:35:08;;;;;;;14.60;11.10;;;22.90;99.90;;;;;;7376312;19;20365;-47
2022/08/28 07:37:38;;;;;;;10.93;9.60;;;22.90;99.90;;;;;;7382756;19;20368;-48
2022/08/28 07:40:09;;;;;;;10.33;7.83;;;23.00;99.90;;;;;;7381403;19;21000;-48
2022/08/28 07:45:26;;;;;;;13.20;10.23;;;23.00;99.90;;;;;;7373385;19;20372;-48
2022/08/28 07:47:59;;;;;;;14.47;10.00;;;22.90;99.90;;;;;;7378193;19;20436;-48
2022/08/28 07:50:28;;;;;;;13.63;11.73;;;22.90;99.90;;;;;;7368478;19;20369;-47
2022/08/28 07:52:58;;;;;;;20.30;12.23;;;22.80;99.90;;;;;;7372769;19;20432;-47
2022/08/28 07:55:30;;;;;;;12.67;9.80;;;22.80;99.90;;;;;;7378043;19;20368;-48
2022/08/28 07:58:02;;;;;;;11.80;10.10;;;22.70;99.90;;;;;;7385490;19;20367;-48
2022/08/28 08:00:32;;;;;;;9.43;8.40;;;22.80;99.90;;;;;;7384518;19;20447;-48
2022/08/28 08:03:01;;;;;;;13.63;10.63;;;22.90;99.90;;;;;;7384028;19;20968;-47
2022/08/28 08:05:31;;;;;;;12.60;9.47;;;22.90;99.90;;;;;;7383169;19;20447;-48
2022/08/28 08:08:00;;;;;;;12.60;10.60;;;23.00;99.90;;;;;;7380440;19;20411;-47
2022/08/28 08:10:30;;;;;;;11.50;10.03;;;22.90;99.90;;;;;;7368454;19;20380;-47
2022/08/28 08:13:02;;;;;;;12.20;10.40;;;22.90;99.90;;;;;;7377119;19;21453;-47
2022/08/28 08:15:34;;;;;;;12.50;10.90;;;23.00;99.90;;;;;;7373757;19;20372;-48
2022/08/28 08:18:04;;;;;;;14.20;10.10;;;23.10;99.90;;;;;;7383396;19;20380;-48
2022/08/28 08:20:33;;;;;;;13.47;11.23;;;23.20;99.90;;;;;;7384403;19;20387;-48
2022/08/28 08:23:03;;;;;;;17.13;11.70;;;23.40;99.90;;;;;;7383818;19;20412;-48
2022/08/28 08:25:32;;;;;;;15.07;12.00;;;23.30;99.90;;;;;;7376614;19;20387;-48
2022/08/28 08:28:06;;;;;;;14.20;9.73;;;23.20;99.90;;;;;;7373292;19;20429;-48
2022/08/28 08:30:38;;;;;;;11.50;9.93;;;23.40;99.90;;;;;;7366746;19;20656;-48
2022/08/28 08:33:07;;;;;;;14.53;11.53;;;23.50;99.90;;;;;;7366247;19;20383;-48
2022/08/28 08:35:39;;;;;;;14.77;10.67;;;23.50;99.90;;;;;;7373561;19;20974;-48
2022/08/28 08:38:09;;;;;;;16.87;11.57;;;23.50;99.90;;;;;;7374778;19;20380;-48
2022/08/28 08:40:39;;;;;;;12.70;10.97;;;23.60;99.90;;;;;;7379731;19;20380;-48
2022/08/28 08:43:11;;;;;;;13.10;11.73;;;23.70;99.90;;;;;;7370092;19;20368;-48
2022/08/28 08:45:43;;;;;;;12.90;9.30;;;23.90;99.90;;;;;;7376940;19;20380;-48
2022/08/28 08:48:26;;;;;;;14.40;10.40;;;23.90;99.90;;;;;;7375960;19;20369;-48
2022/08/28 08:50:56;;;;;;;14.93;11.80;;;23.90;99.60;;;;;;7367562;19;20368;-48
2022/08/28 08:53:36;;;;;;;13.00;10.23;;;23.80;99.80;;;;;;7377849;19;20986;-48
2022/08/28 08:56:07;;;;;;;11.40;10.20;;;23.70;99.90;;;;;;7369574;19;20443;-48
2022/08/28 08:58:43;;;;;;;13.20;10.30;;;23.80;99.90;;;;;;7366018;19;20371;-48
2022/08/28 09:01:19;;;;;;;13.40;10.67;;;23.90;99.90;;;;;;7368289;19;20939;-48
2022/08/28 09:03:56;;;;;;;13.90;12.40;;;24.10;99.60;;;;;;7373043;19;20391;-48
2022/08/28 09:06:35;;;;;;;8.90;7.40;;;24.30;97.60;;;;;;7364309;19;20391;-48
2022/08/28 09:09:13;;;;;;;12.47;9.90;;;24.50;96.50;;;;;;7374075;19;20913;-48
2022/08/28 09:11:50;;;;;;;14.53;9.70;;;24.80;94.90;;;;;;7375739;19;20743;-49
2022/08/28 09:14:34;;;;;;;11.53;9.50;;;25.20;92.00;;;;;;7375440;19;21146;-49
2022/08/28 09:17:04;;;;;;;12.80;9.87;;;25.40;91.00;;;;;;7367148;19;20376;-49
2022/08/28 09:19:36;;;;;;;11.60;8.67;;;25.40;90.50;;;;;;7377912;19;20815;-49
2022/08/28 09:22:06;;;;;;;10.07;8.30;;;25.40;90.50;;;;;;7376336;19;20383;-49
2022/08/28 09:24:37;;;;;;;17.33;10.77;;;25.40;90.50;;;;;;7379624;19;20364;-49
2022/08/28 09:27:09;;;;;;;11.00;8.83;;;25.70;89.20;;;;;;7357624;19;20413;-49
2022/08/28 09:29:45;;;;;;;10.83;8.73;;;25.90;86.70;;;;;;7370968;19;20373;-49
2022/08/28 09:32:23;;;;;;;10.03;8.67;;;26.00;85.00;;;;;;7373458;19;20980;-49
2022/08/28 09:35:06;;;;;;;12.80;9.33;;;26.10;84.10;;;;;;7372676;19;20394;-49
2022/08/28 09:37:37;;;;;;;17.60;9.40;;;26.30;83.30;;;;;;7375861;19;20390;-49
2022/08/28 09:43:25;;;;;;;13.47;9.17;;;26.40;81.80;;;;;;7369964;19;20728;-48
2022/08/28 09:43:26;;;;;;;10.70;8.73;;;26.30;80.20;;;;;;7369123;19;20376;-49
2022/08/28 09:46:03;;;;;;;11.10;9.57;;;26.20;80.00;;;;;;7375317;19;20909;-48
2022/08/28 09:48:36;;;;;;;10.00;7.90;;;26.40;81.60;;;;;;7374946;19;20383;-46
2022/08/28 09:51:08;;;;;;;9.70;7.80;;;26.50;80.40;;;;;;7371574;19;20376;-48
2022/08/28 09:53:43;;;;;;;11.67;9.23;;;26.70;78.40;;;;;;7375547;19;20378;-49
2022/08/28 09:56:18;;;;;;;8.17;6.60;;;26.80;76.00;;;;;;7377142;19;20411;-49
2022/08/28 09:58:51;;;;;;;9.23;8.13;;;27.00;75.80;;;;;;7379532;19;20399;-48
2022/08/28 10:01:36;;;;;;;10.13;8.10;;;27.00;73.20;;;;;;7382277;19;20650;-48
2022/08/28 10:04:21;;;;;;;9.47;7.50;;;27.00;72.20;;;;;;7385748;19;20383;-48
2022/08/28 10:06:54;;;;;;;9.03;7.97;;;26.90;73.40;;;;;;7384325;19;20924;-48
2022/08/28 10:09:33;;;;;;;10.63;8.13;;;26.70;73.30;;;;;;7378393;19;20368;-49
2022/08/28 10:12:12;;;;;;;11.10;8.80;;;26.50;74.30;;;;;;7379156;19;20382;-48
2022/08/28 10:14:52;;;;;;;11.10;7.67;;;26.50;74.90;;;;;;7379916;19;20419;-48
2022/08/28 10:17:35;;;;;;;8.63;7.70;;;26.40;74.10;;;;;;7375164;19;20367;-48
2022/08/28 10:20:11;;;;;;;9.53;8.53;;;26.30;75.50;;;;;;7387778;19;20408;-48
2022/08/28 10:22:49;;;;;;;10.30;7.60;;;26.20;76.80;;;;;;7387874;19;20367;-48
2022/08/28 10:25:27;;;;;;;8.00;7.20;;;27.30;74.00;;;;;;7385210;19;20368;-48
2022/08/28 10:28:18;;;;;;;8.40;7.60;;;28.10;67.40;;;;;;7388737;19;20942;-48
2022/08/28 10:30:56;;;;;;;8.30;6.80;;;28.70;64.60;;;;;;7376992;19;20387;-49
2022/08/28 10:33:49;;;;;;;7.53;6.83;;;28.80;63.30;;;;;;7378452;19;20383;-48
2022/08/28 10:36:23;;;;;;;7.23;6.53;;;28.90;61.80;;;;;;7383917;19;20408;-49
2022/08/28 10:39:01;;;;;;;10.57;7.80;;;29.10;61.10;;;;;;7388200;19;21448;-49
2022/08/28 10:41:40;;;;;;;11.63;7.93;;;29.30;59.70;;;;;;7386772;19;20376;-49
2022/08/28 10:44:12;;;;;;;8.60;7.63;;;29.70;58.60;;;;;;7380694;19;20375;-48
2022/08/28 10:46:46;;;;;;;9.27;6.73;;;29.90;57.90;;;;;;7381756;19;20372;-49
2022/08/28 10:49:26;;;;;;;9.40;6.53;;;30.50;56.90;;;;;;7381772;19;20383;-47
2022/08/28 10:52:03;;;;;;;6.50;5.90;;;31.80;53.90;;;;;;7376563;19;20791;-47
2022/08/28 10:54:42;;;;;;;6.80;5.70;;;32.90;49.80;;;;;;7384035;19;20375;-47
2022/08/28 10:57:30;;;;;;;6.80;6.13;;;33.90;48.60;;;;;;7382872;19;20415;-47
2022/08/28 11:00:06;;;;;;;7.70;5.90;;;34.50;45.40;;;;;;7371743;19;20405;-47
2022/08/28 11:02:38;;;;;;;5.40;4.90;;;34.10;46.20;;;;;;7379972;19;20371;-50
2022/08/28 11:05:13;;;;;;;13.33;6.97;;;34.50;46.00;;;;;;7382696;19;20383;-47
2022/08/28 11:07:49;;;;;;;5.60;5.00;;;34.40;44.90;;;;;;7383340;19;20379;-47
2022/08/28 11:10:24;;;;;;;6.20;5.60;;;35.40;43.90;;;;;;7374993;19;20383;-50
2022/08/28 11:12:54;;;;;;;7.17;5.70;;;35.10;43.00;;;;;;7376350;19;20383;-48
2022/08/28 11:15:43;;;;;;;7.43;5.97;;;34.10;45.00;;;;;;7376489;19;20376;-48
2022/08/28 11:18:43;;;;;;;9.37;5.30;;;34.80;44.50;;;;;;7379903;19;20416;-48
2022/08/28 11:21:26;;;;;;;5.47;4.60;;;36.20;42.40;;;;;;7377116;19;20371;-48
2022/08/28 11:24:05;;;;;;;7.27;6.60;;;37.00;41.00;;;;;;7384130;19;20372;-48
2022/08/28 11:26:43;;;;;;;4.80;4.40;;;37.40;39.80;;;;;;7382213;19;20933;-48
2022/08/28 11:29:12;;;;;;;5.90;5.30;;;38.10;39.90;;;;;;7387079;19;20375;-48
2022/08/28 11:31:44;;;;;;;5.63;5.03;;;37.70;39.70;;;;;;7378492;19;20393;-48
2022/08/28 11:34:43;;;;;;;7.27;6.57;;;36.60;40.70;;;;;;7380625;19;20742;-48
2022/08/28 11:37:39;;;;;;;6.57;5.87;;;35.00;42.60;;;;;;7382091;19;20970;-48
2022/08/28 11:40:21;;;;;;;5.80;4.97;;;33.30;45.10;;;;;;7377642;19;20393;-48
2022/08/28 11:42:50;;;;;;;6.50;5.60;;;33.00;47.00;;;;;;7380481;19;20387;-48
2022/08/28 11:46:03;;;;;;;7.43;6.40;;;33.50;45.70;;;;;;7376476;19;20376;-48
2022/08/28 11:48:49;;;;;;;6.60;5.90;;;33.80;44.80;;;;;;7385181;19;20403;-49
2022/08/28 11:51:49;;;;;;;6.30;5.43;;;34.50;44.20;;;;;;7375805;19;20383;-50
2022/08/28 11:54:46;;;;;;;5.20;4.70;;;35.90;42.40;;;;;;7369960;19;20977;-49
2022/08/28 11:57:22;;;;;;;5.50;5.00;;;36.40;40.80;;;;;;7368549;19;20376;-50
2022/08/28 12:00:04;;;;;;;6.40;5.80;;;35.90;40.50;;;;;;7372464;19;20391;-48
2022/08/28 12:02:48;;;;;;;6.60;5.23;;;35.70;41.30;;;;;;7383754;19;20394;-48
2022/08/28 12:05:46;;;;;;;6.90;6.20;;;35.60;42.20;;;;;;7379224;19;20380;-50
2022/08/28 12:08:52;;;;;;;6.30;5.07;;;35.60;42.20;;;;;;7376164;19;20368;-48
2022/08/28 12:11:52;;;;;;;5.30;4.80;;;35.90;40.40;;;;;;7374276;19;20375;-49
2022/08/28 12:15:12;;;;;;;8.53;7.00;;;36.10;41.40;;;;;;7367555;19;20408;-51
2022/08/28 12:17:54;;;;;;;4.90;4.50;;;36.50;41.00;;;;;;7373823;19;20376;-47
2022/08/28 12:20:55;;;;;;;5.23;4.73;;;36.50;40.20;;;;;;7381029;19;20376;-47
2022/08/28 12:23:38;;;;;;;4.80;4.40;;;36.20;39.90;;;;;;7377914;19;20383;-48
2022/08/28 12:26:12;;;;;;;7.33;6.30;;;35.90;41.20;;;;;;7381676;19;20701;-48
2022/08/28 12:28:48;;;;;;;5.87;5.30;;;36.20;39.80;;;;;;7376575;19;22496;-48
2022/08/28 12:34:39;;;;;;;5.43;4.90;;;35.80;40.10;;;;;;7377040;19;20392;-47
2022/08/28 12:37:33;;;;;;;4.50;4.10;;;35.90;40.90;;;;;;7379034;19;20480;-49
2022/08/28 12:40:14;;;;;;;4.60;4.20;;;36.60;39.30;;;;;;7382586;19;20902;-49
2022/08/28 12:42:50;;;;;;;5.10;4.60;;;37.30;38.50;;;;;;7376444;19;20380;-47
2022/08/28 12:45:28;;;;;;;4.83;4.33;;;37.60;36.50;;;;;;7379614;19;20380;-47
2022/08/28 12:48:02;;;;;;;4.70;4.27;;;38.60;36.20;;;;;;7377394;19;20378;-47
2022/08/28 12:50:38;;;;;;;7.00;4.67;;;38.90;36.00;;;;;;7381106;19;20704;-50
2022/08/28 12:53:13;;;;;;;9.13;5.10;;;39.00;36.30;;;;;;7373996;19;20368;-49
2022/08/28 12:55:47;;;;;;;5.97;5.00;;;38.30;36.80;;;;;;7380108;19;20500;-49
2022/08/28 12:58:30;;;;;;;4.97;4.50;;;36.70;38.80;;;;;;7379880;19;20388;-49
2022/08/28 13:01:09;;;;;;;5.43;4.93;;;35.50;40.30;;;;;;7364010;19;20861;-48
2022/08/28 13:03:51;;;;;;;6.07;5.10;;;34.80;42.80;;;;;;7377510;19;21023;-49
2022/08/28 13:06:26;;;;;;;9.00;5.37;;;35.00;42.50;;;;;;7377873;19;21408;-48
2022/08/28 13:09:01;;;;;;;5.53;4.67;;;34.80;41.50;;;;;;7378945;19;20427;-49
2022/08/28 13:11:36;;;;;;;5.03;4.43;;;35.30;40.40;;;;;;7380651;19;20412;-49
2022/08/28 13:14:07;;;;;;;8.23;5.50;;;36.40;39.60;;;;;;7378834;19;20384;-49
2022/08/28 13:16:43;;;;;;;6.07;4.90;;;36.60;39.40;;;;;;7372599;19;20368;-49